Sanibel, Florida
Current Conditions -  °F | °C
As of 6:53 AM on Sunday 23 Nov 2014 (Local Time) from KFMY Reporting Station
Clear Clear  
Wind Chill: 72°   Ceiling: Unl
Heat Index: 72°   Visibility: 9mi
Dew Point: 71°   Wind: 9mph
Humidity: 97%   Direction: 140°SE
Pressure: 29.99"   Gusts: NA
Location:  26.44°N, 82.07°W
Report Text: KFMY 231153Z 14008KT 9SM CLR 22/22 A2999 RMK AO2 SLP157 T02220217 10228 20217 55000
Loading
Personal Weather Stations






























Interactive Weather Map New forecast layout! Learn more

10-Day Weather Forecast

Advertisements
Track Severe Weather on mobile